Time;durP1;ratioP1;P1;durP2;ratioP2;P2;SDS_P1;SDS_P2;PMS_P1;PMS_P2;Temp;Humidity;BMP_temperature;BMP_pressure;BME280_temperature;BME280_humidity;BME280_pressure;Samples;Min_cycle;Max_cycle;Signal;HPM_P1;HPM_P2
2021/12/20 08:33:39;;;;;;;11.03;7.20;;;;;;;;;;5442662;23;21576;-62
2021/12/20 08:36:09;;;;;;;9.80;5.60;;;;;;;;;;4961315;28;20463;-49
2021/12/20 08:38:35;;;;;;;10.27;5.10;;;;;;;;;;4967098;28;20408;-49
2021/12/20 08:41:02;;;;;;;13.37;5.47;;;;;;;;;;4968567;28;20392;-49
2021/12/20 08:43:29;;;;;;;8.35;5.00;;;;;;;;;;4969409;28;20420;-50
2021/12/20 08:45:56;;;;;;;7.85;4.50;;;;;;;;;;4961225;28;20443;-48
2021/12/20 08:48:22;;;;;;;8.30;4.50;;;;;;;;;;4967611;28;20412;-53
2021/12/20 08:50:48;;;;;;;6.28;4.18;;;;;;;;;;4966912;28;20424;-50
2021/12/20 08:53:14;;;;;;;8.32;4.60;;;;;;;;;;4965374;28;20907;-47
2021/12/20 08:55:40;;;;;;;8.10;4.28;;;;;;;;;;4965130;28;20374;-46
2021/12/20 08:58:07;;;;;;;6.70;4.20;;;;;;;;;;4949355;28;20415;-47
2021/12/20 09:00:34;;;;;;;5.53;3.67;;;;;;;;;;4955676;28;20374;-44
2021/12/20 09:03:01;;;;;;;6.35;3.65;;;;;;;;;;4965366;28;20487;-49
2021/12/20 09:05:28;;;;;;;8.38;4.07;;;;;;;;;;4965426;28;20394;-53
2021/12/20 09:07:56;;;;;;;6.03;3.70;;;;;;;;;;4964494;28;20407;-51
2021/12/20 09:10:23;;;;;;;5.68;3.38;;;;;;;;;;4969018;28;20431;-57
2021/12/20 09:12:49;;;;;;;5.13;3.08;;;;;;;;;;4969375;28;20883;-54
2021/12/20 09:15:16;;;;;;;4.80;2.92;;;;;;;;;;4960922;28;20427;-51
2021/12/20 09:17:43;;;;;;;5.40;3.17;;;;;;;;;;4968461;28;20404;-53
2021/12/20 09:20:10;;;;;;;5.32;3.20;;;;;;;;;;4964449;28;20487;-54
2021/12/20 09:22:48;;;;;;;5.37;3.27;;;;;;;;;;4964113;28;20994;-51
2021/12/20 09:25:15;;;;;;;4.95;2.72;;;;;;;;;;4964594;28;20412;-55
2021/12/20 09:27:41;;;;;;;4.68;2.70;;;;;;;;;;4969789;28;20453;-49
2021/12/20 09:30:07;;;;;;;4.47;2.40;;;;;;;;;;4967370;28;20824;-53
2021/12/20 09:32:33;;;;;;;4.25;2.47;;;;;;;;;;4971154;28;20403;-50
2021/12/20 09:34:59;;;;;;;4.00;2.72;;;;;;;;;;4967254;28;20427;-53
2021/12/20 09:37:25;;;;;;;4.75;2.83;;;;;;;;;;4966731;28;20408;-51
2021/12/20 09:39:54;;;;;;;3.22;2.17;;;;;;;;;;4961448;28;20421;-56
2021/12/20 09:42:21;;;;;;;3.20;2.15;;;;;;;;;;4966217;28;20408;-53
2021/12/20 09:44:48;;;;;;;4.63;2.57;;;;;;;;;;4965159;28;20422;-57
2021/12/20 09:47:14;;;;;;;4.38;2.58;;;;;;;;;;4949967;28;20756;-53
2021/12/20 09:49:40;;;;;;;4.07;2.40;;;;;;;;;;4971758;28;20415;-56
2021/12/20 09:52:06;;;;;;;3.90;2.30;;;;;;;;;;4968913;28;21152;-50
2021/12/20 09:54:33;;;;;;;4.68;2.65;;;;;;;;;;4967307;28;20403;-59
2021/12/20 09:56:59;;;;;;;4.63;2.75;;;;;;;;;;4969510;28;20916;-59
2021/12/20 09:59:28;;;;;;;4.68;2.53;;;;;;;;;;4961233;28;20483;-50
2021/12/20 10:01:54;;;;;;;5.70;3.10;;;;;;;;;;4965401;28;20412;-50
2021/12/20 10:04:22;;;;;;;6.13;2.83;;;;;;;;;;4975248;28;20400;-58
2021/12/20 10:06:52;;;;;;;43.30;39.75;;;;;;;;;;4957757;28;20402;-50
2021/12/20 10:09:25;;;;;;;8.50;7.38;;;;;;;;;;4974463;28;20435;-49
2021/12/20 10:12:09;;;;;;;3.88;2.40;;;;;;;;;;4973302;28;20920;-52
2021/12/20 10:14:50;;;;;;;15.03;13.83;;;;;;;;;;4973585;28;20916;-55
2021/12/20 10:17:16;;;;;;;3.88;2.42;;;;;;;;;;4961512;28;20935;-51
2021/12/20 10:19:42;;;;;;;6.05;3.00;;;;;;;;;;4957012;28;20439;-55
2021/12/20 10:22:28;;;;;;;4.28;2.42;;;;;;;;;;4974242;28;20400;-51
2021/12/20 10:24:56;;;;;;;5.85;3.20;;;;;;;;;;4955830;28;20783;-55
2021/12/20 10:27:35;;;;;;;4.70;2.57;;;;;;;;;;4971800;28;20431;-54
2021/12/20 10:30:19;;;;;;;5.90;3.08;;;;;;;;;;4967434;28;20447;-53
2021/12/20 10:32:45;;;;;;;4.22;2.55;;;;;;;;;;4967673;28;20471;-53
2021/12/20 10:35:27;;;;;;;4.90;2.73;;;;;;;;;;4973131;28;20786;-54
2021/12/20 10:38:05;;;;;;;5.00;2.95;;;;;;;;;;4969955;28;20409;-52
2021/12/20 10:40:32;;;;;;;6.30;3.55;;;;;;;;;;4967900;28;20400;-53
2021/12/20 10:42:59;;;;;;;5.67;3.17;;;;;;;;;;4951793;28;20420;-52
2021/12/20 10:45:26;;;;;;;5.20;2.90;;;;;;;;;;4969693;28;20952;-59
2021/12/20 10:47:53;;;;;;;5.50;2.90;;;;;;;;;;4974034;28;20475;-60
2021/12/20 10:50:22;;;;;;;5.10;3.05;;;;;;;;;;4942029;28;20476;-56
2021/12/20 10:52:48;;;;;;;5.40;3.47;;;;;;;;;;4973396;28;20397;-50
2021/12/20 10:55:35;;;;;;;4.95;3.33;;;;;;;;;;4974674;28;20380;-49
2021/12/20 10:58:19;;;;;;;6.32;3.95;;;;;;;;;;4959724;28;20534;-51
2021/12/20 11:00:45;;;;;;;5.45;3.33;;;;;;;;;;4957395;28;20432;-53
2021/12/20 11:03:22;;;;;;;5.18;3.30;;;;;;;;;;4962035;28;20399;-52
2021/12/20 11:09:09;;;;;;;4.73;3.07;;;;;;;;;;4964748;28;20456;-50
2021/12/20 11:11:27;;;;;;;5.80;3.28;;;;;;;;;;4965588;28;20762;-52
2021/12/20 11:13:53;;;;;;;5.55;3.40;;;;;;;;;;4961509;28;20386;-51
2021/12/20 11:16:27;;;;;;;5.30;3.28;;;;;;;;;;4974066;28;20388;-54
2021/12/20 11:19:23;;;;;;;5.30;3.05;;;;;;;;;;4973302;28;20384;-51
2021/12/20 11:21:52;;;;;;;4.47;2.87;;;;;;;;;;4949607;28;20484;-53
2021/12/20 11:24:21;;;;;;;6.88;3.60;;;;;;;;;;4974007;28;20896;-55
2021/12/20 11:26:47;;;;;;;5.03;3.17;;;;;;;;;;4974262;28;20412;-50
2021/12/20 11:29:13;;;;;;;5.37;3.00;;;;;;;;;;4974055;28;20412;-51
2021/12/20 11:31:40;;;;;;;4.43;2.83;;;;;;;;;;4973811;28;20396;-51
2021/12/20 11:34:06;;;;;;;4.43;2.70;;;;;;;;;;4973630;28;20416;-49
2021/12/20 11:36:35;;;;;;;3.97;2.78;;;;;;;;;;4974331;28;20463;-53
2021/12/20 11:39:03;;;;;;;4.38;2.80;;;;;;;;;;4971898;28;20809;-51
2021/12/20 11:41:29;;;;;;;4.55;2.58;;;;;;;;;;4946402;28;20835;-48
2021/12/20 11:43:56;;;;;;;3.63;2.60;;;;;;;;;;4974095;28;20395;-50
2021/12/20 11:46:23;;;;;;;4.18;2.88;;;;;;;;;;4973847;28;20392;-52
2021/12/20 11:48:53;;;;;;;4.10;2.50;;;;;;;;;;4974420;28;20467;-51
2021/12/20 11:51:19;;;;;;;3.38;2.50;;;;;;;;;;4973759;28;20408;-52
2021/12/20 11:53:45;;;;;;;3.70;2.53;;;;;;;;;;4974179;28;20400;-51
2021/12/20 11:56:11;;;;;;;4.60;2.65;;;;;;;;;;4969098;28;20441;-49
2021/12/20 11:58:45;;;;;;;4.18;2.70;;;;;;;;;;4966313;28;20396;-53
2021/12/20 12:01:15;;;;;;;3.67;2.50;;;;;;;;;;4968120;28;20445;-54
2021/12/20 12:03:51;;;;;;;3.90;2.40;;;;;;;;;;4952154;28;20410;-51
2021/12/20 12:06:23;;;;;;;3.47;2.42;;;;;;;;;;4963674;28;20394;-50
2021/12/20 12:08:59;;;;;;;3.42;2.30;;;;;;;;;;4965016;28;20413;-54
2021/12/20 12:11:25;;;;;;;4.10;2.50;;;;;;;;;;4963835;28;20459;-51
2021/12/20 12:14:44;;;;;;;4.10;2.47;;;;;;;;;;4964616;28;20388;-51
2021/12/20 12:17:01;;;;;;;3.38;2.28;;;;;;;;;;4949295;28;20471;-53
2021/12/20 12:19:41;;;;;;;4.28;2.50;;;;;;;;;;4964056;28;20425;-52
2021/12/20 12:22:26;;;;;;;3.85;2.40;;;;;;;;;;4948844;28;20408;-49
2021/12/20 12:24:53;;;;;;;4.47;2.63;;;;;;;;;;4964842;28;20392;-52
2021/12/20 12:27:23;;;;;;;3.53;2.30;;;;;;;;;;4963189;28;20377;-51
2021/12/20 12:30:08;;;;;;;3.72;2.50;;;;;;;;;;4963768;28;20424;-51
2021/12/20 12:32:34;;;;;;;3.65;2.28;;;;;;;;;;4970425;28;20403;-52
2021/12/20 12:35:00;;;;;;;3.00;2.20;;;;;;;;;;4961434;28;20416;-49
2021/12/20 12:37:35;;;;;;;4.22;2.45;;;;;;;;;;4968909;28;20877;-49
2021/12/20 12:40:20;;;;;;;3.15;2.30;;;;;;;;;;4966661;28;20760;-51
2021/12/20 12:42:56;;;;;;;4.70;2.40;;;;;;;;;;4950033;28;20753;-54
2021/12/20 12:45:41;;;;;;;3.92;2.33;;;;;;;;;;4960119;28;20402;-51
2021/12/20 12:48:25;;;;;;;3.83;2.58;;;;;;;;;;4963551;28;20390;-54
2021/12/20 12:50:51;;;;;;;4.57;2.95;;;;;;;;;;4961004;28;20378;-51
2021/12/20 12:53:36;;;;;;;4.67;3.00;;;;;;;;;;4963035;28;20394;-48
2021/12/20 12:56:25;;;;;;;5.57;3.22;;;;;;;;;;4964610;28;20386;-50
2021/12/20 12:59:10;;;;;;;5.18;3.72;;;;;;;;;;4962680;28;20425;-51
2021/12/20 13:01:38;;;;;;;4.90;3.80;;;;;;;;;;4947309;28;20397;-54
2021/12/20 13:04:04;;;;;;;6.22;4.20;;;;;;;;;;4964166;28;20431;-50
2021/12/20 13:06:33;;;;;;;6.53;4.50;;;;;;;;;;4970426;28;20488;-52
2021/12/20 13:09:00;;;;;;;7.20;4.13;;;;;;;;;;4965599;28;20466;-50
2021/12/20 13:11:29;;;;;;;6.15;4.38;;;;;;;;;;4971034;28;20431;-52
2021/12/20 13:14:15;;;;;;;7.25;4.57;;;;;;;;;;4965684;28;20410;-49
2021/12/20 13:16:51;;;;;;;6.72;5.15;;;;;;;;;;4968391;28;20392;-51
2021/12/20 13:19:27;;;;;;;7.22;5.20;;;;;;;;;;4966214;28;20384;-51
2021/12/20 13:21:57;;;;;;;6.40;4.60;;;;;;;;;;4972507;28;20932;-48
2021/12/20 13:24:23;;;;;;;6.53;5.30;;;;;;;;;;4971967;28;20389;-49
2021/12/20 13:26:49;;;;;;;6.38;4.82;;;;;;;;;;4971838;28;20396;-60
2021/12/20 13:29:19;;;;;;;7.32;5.40;;;;;;;;;;4951863;28;20412;-51
2021/12/20 13:31:45;;;;;;;7.00;5.07;;;;;;;;;;4973227;28;20975;-53
2021/12/20 13:34:14;;;;;;;6.97;5.00;;;;;;;;;;4971426;28;20551;-51
2021/12/20 13:36:50;;;;;;;6.77;4.90;;;;;;;;;;4971993;28;20380;-49
2021/12/20 13:39:16;;;;;;;6.53;4.75;;;;;;;;;;4954618;28;21007;-53
2021/12/20 13:41:42;;;;;;;5.93;4.32;;;;;;;;;;4972326;28;20451;-53
2021/12/20 13:44:10;;;;;;;5.55;4.25;;;;;;;;;;4972533;28;20904;-52
2021/12/20 13:46:42;;;;;;;6.10;4.20;;;;;;;;;;4972096;28;20951;-50
2021/12/20 13:49:11;;;;;;;5.20;3.97;;;;;;;;;;4954843;28;20420;-52
2021/12/20 13:51:48;;;;;;;6.60;4.25;;;;;;;;;;4971663;28;20463;-53
2021/12/20 13:54:15;;;;;;;5.20;3.92;;;;;;;;;;4972109;28;20396;-49
2021/12/20 13:56:44;;;;;;;5.13;3.60;;;;;;;;;;4971797;28;20380;-54
2021/12/20 13:59:11;;;;;;;5.07;3.77;;;;;;;;;;4971886;28;20439;-57
2021/12/20 14:01:37;;;;;;;6.75;3.40;;;;;;;;;;4972292;28;20380;-51
2021/12/20 14:04:04;;;;;;;4.80;3.50;;;;;;;;;;4968159;28;20770;-53
2021/12/20 14:06:38;;;;;;;4.97;3.78;;;;;;;;;;4961894;28;20372;-60
2021/12/20 14:09:19;;;;;;;4.22;3.42;;;;;;;;;;4963224;28;20430;-56
2021/12/20 14:11:45;;;;;;;5.63;3.55;;;;;;;;;;4961914;28;20387;-60
2021/12/20 14:14:12;;;;;;;7.25;3.90;;;;;;;;;;4971958;28;20480;-50
2021/12/20 14:16:57;;;;;;;4.85;3.42;;;;;;;;;;4971873;28;20587;-54
2021/12/20 14:19:43;;;;;;;6.75;4.05;;;;;;;;;;4972122;28;20380;-49
2021/12/20 14:22:09;;;;;;;8.13;4.13;;;;;;;;;;4971663;28;20387;-54
2021/12/20 14:24:41;;;;;;;6.50;3.88;;;;;;;;;;4962871;28;20405;-50
2021/12/20 14:27:09;;;;;;;13.27;4.38;;;;;;;;;;4967462;28;20467;-55
2021/12/20 14:29:36;;;;;;;58.88;54.00;;;;;;;;;;4953011;28;20435;-63
2021/12/20 14:32:02;;;;;;;155.17;119.77;;;;;;;;;;4953818;28;20974;-62
2021/12/20 14:34:33;;;;;;;66.13;60.35;;;;;;;;;;4954615;28;20421;-61
2021/12/20 14:37:09;;;;;;;7.47;4.25;;;;;;;;;;4973053;28;20483;-63
2021/12/20 14:39:42;;;;;;;7.63;4.03;;;;;;;;;;4972967;28;20396;-62
2021/12/20 14:42:09;;;;;;;8.27;3.97;;;;;;;;;;4966623;28;20398;-62
2021/12/20 14:44:45;;;;;;;7.32;4.05;;;;;;;;;;4970522;28;20376;-64
2021/12/20 14:47:18;;;;;;;6.47;3.55;;;;;;;;;;4955578;28;20388;-63
2021/12/20 14:49:50;;;;;;;6.47;3.50;;;;;;;;;;4942923;28;20428;-63
2021/12/20 14:52:20;;;;;;;5.03;3.13;;;;;;;;;;4974602;28;20496;-63
2021/12/20 14:54:46;;;;;;;4.95;3.20;;;;;;;;;;4956767;28;20903;-64
2021/12/20 14:57:13;;;;;;;6.90;3.50;;;;;;;;;;4974187;28;20783;-64
2021/12/20 14:59:39;;;;;;;5.63;3.53;;;;;;;;;;4974707;28;20860;-63
2021/12/20 15:02:07;;;;;;;5.57;3.23;;;;;;;;;;4974183;28;20853;-63
2021/12/20 15:04:33;;;;;;;4.93;3.10;;;;;;;;;;4956761;28;20384;-60
2021/12/20 15:07:02;;;;;;;5.30;3.30;;;;;;;;;;4956823;28;22000;-62
2021/12/20 15:09:29;;;;;;;5.30;3.45;;;;;;;;;;4974050;28;20430;-63
2021/12/20 15:11:55;;;;;;;6.72;3.42;;;;;;;;;;4973878;28;20782;-63
2021/12/20 15:14:21;;;;;;;6.38;3.45;;;;;;;;;;4944216;28;20388;-62
2021/12/20 15:16:50;;;;;;;5.45;3.10;;;;;;;;;;4974199;28;20410;-69
2021/12/20 15:19:17;;;;;;;5.30;3.30;;;;;;;;;;4974333;28;20920;-68
2021/12/20 15:21:43;;;;;;;5.28;3.47;;;;;;;;;;4974082;28;20396;-66
2021/12/20 15:24:09;;;;;;;7.60;4.00;;;;;;;;;;4972799;28;20391;-67
2021/12/20 15:26:35;;;;;;;6.07;3.63;;;;;;;;;;4963693;28;20907;-64
2021/12/20 15:29:03;;;;;;;8.30;4.17;;;;;;;;;;4965408;28;20450;-63
2021/12/20 15:31:30;;;;;;;6.75;4.07;;;;;;;;;;4964044;28;20409;-63
2021/12/20 15:33:56;;;;;;;8.73;4.20;;;;;;;;;;4966422;28;20431;-61
2021/12/20 15:36:22;;;;;;;8.93;4.70;;;;;;;;;;4972591;28;20384;-68
2021/12/20 15:38:48;;;;;;;6.35;3.65;;;;;;;;;;4972962;28;20399;-65
2021/12/20 15:41:15;;;;;;;6.22;4.00;;;;;;;;;;4949702;28;20389;-68
2021/12/20 15:43:41;;;;;;;6.80;3.92;;;;;;;;;;4972734;28;20455;-66
2021/12/20 15:46:07;;;;;;;5.68;3.60;;;;;;;;;;4973454;28;20483;-66
2021/12/20 15:48:33;;;;;;;5.70;3.72;;;;;;;;;;4973783;28;20404;-66
2021/12/20 15:50:59;;;;;;;5.95;3.83;;;;;;;;;;4972793;28;20397;-66
2021/12/20 15:53:32;;;;;;;8.18;4.30;;;;;;;;;;4973342;28;20376;-56
2021/12/20 15:56:04;;;;;;;12.37;7.43;;;;;;;;;;4973463;28;20468;-60
2021/12/20 15:58:33;;;;;;;13.98;8.15;;;;;;;;;;4955639;28;20400;-63
2021/12/20 16:01:03;;;;;;;14.95;8.63;;;;;;;;;;4973055;28;20384;-63
2021/12/20 16:03:34;;;;;;;15.90;10.27;;;;;;;;;;4972112;28;20796;-63
2021/12/20 16:06:04;;;;;;;16.13;10.70;;;;;;;;;;4971817;28;20372;-63
2021/12/20 16:08:36;;;;;;;14.75;10.45;;;;;;;;;;4973180;28;20381;-63
2021/12/20 16:11:10;;;;;;;15.90;11.30;;;;;;;;;;4973217;28;20448;-63
2021/12/20 16:13:42;;;;;;;16.10;11.15;;;;;;;;;;4973025;28;20756;-63
2021/12/20 16:16:13;;;;;;;18.00;12.13;;;;;;;;;;4961050;28;20379;-63
2021/12/20 16:18:42;;;;;;;19.05;13.23;;;;;;;;;;4972882;28;20438;-63
2021/12/20 16:21:08;;;;;;;18.67;13.43;;;;;;;;;;4956249;28;20388;-63
2021/12/20 16:23:37;;;;;;;18.08;12.88;;;;;;;;;;4972918;28;20559;-63
2021/12/20 16:26:09;;;;;;;19.63;13.38;;;;;;;;;;4973171;28;20397;-63
2021/12/20 16:28:35;;;;;;;21.15;14.40;;;;;;;;;;4972992;28;20408;-63
2021/12/20 16:31:04;;;;;;;21.10;13.80;;;;;;;;;;4969115;28;20385;-62
2021/12/20 16:33:35;;;;;;;20.25;14.27;;;;;;;;;;4968446;28;20416;-63
2021/12/20 16:36:04;;;;;;;22.02;15.13;;;;;;;;;;4972850;28;20393;-63
2021/12/20 16:38:30;;;;;;;21.95;15.23;;;;;;;;;;4972791;28;20423;-63
2021/12/20 16:40:56;;;;;;;22.52;15.40;;;;;;;;;;4972558;28;20385;-63
2021/12/20 16:43:22;;;;;;;22.65;15.63;;;;;;;;;;4972771;28;20379;-62
2021/12/20 16:48:35;;;;;;;21.57;14.50;;;;;;;;;;4972297;28;20435;-63
2021/12/20 16:51:07;;;;;;;20.45;13.90;;;;;;;;;;4972383;28;20388;-61
2021/12/20 16:53:33;;;;;;;22.77;14.85;;;;;;;;;;4954831;28;20388;-63
2021/12/20 16:55:59;;;;;;;21.93;15.13;;;;;;;;;;4952897;28;20498;-61
2021/12/20 16:58:26;;;;;;;20.70;14.63;;;;;;;;;;4972033;28;20396;-64
2021/12/20 17:00:52;;;;;;;20.80;13.85;;;;;;;;;;4972278;28;20368;-68
2021/12/20 17:08:20;;;;;;;22.48;14.98;;;;;;;;;;4972068;28;20408;-68
2021/12/20 17:10:47;;;;;;;21.23;15.07;;;;;;;;;;4968210;28;20479;-67
2021/12/20 17:13:14;;;;;;;19.35;14.00;;;;;;;;;;4968006;28;20449;-64
2021/12/20 17:15:41;;;;;;;21.25;14.30;;;;;;;;;;4964189;28;20386;-68
2021/12/20 17:18:08;;;;;;;21.50;14.68;;;;;;;;;;4971492;28;20388;-70
2021/12/20 17:20:37;;;;;;;21.15;15.25;;;;;;;;;;4971748;28;20757;-63
2021/12/20 17:23:04;;;;;;;20.98;13.98;;;;;;;;;;4969144;28;20879;-65
2021/12/20 17:25:30;;;;;;;19.13;13.95;;;;;;;;;;4970582;28;20415;-65
2021/12/20 17:27:56;;;;;;;20.23;13.80;;;;;;;;;;4971530;28;20377;-62
2021/12/20 17:30:22;;;;;;;20.20;13.95;;;;;;;;;;4974870;28;20427;-62
2021/12/20 17:32:48;;;;;;;19.93;13.63;;;;;;;;;;4968805;28;20398;-62
2021/12/20 17:35:14;;;;;;;19.48;13.90;;;;;;;;;;4969189;28;20411;-66
2021/12/20 17:37:41;;;;;;;20.30;13.93;;;;;;;;;;4957309;28;20407;-68
2021/12/20 17:40:07;;;;;;;21.90;14.73;;;;;;;;;;4950022;28;20397;-69
2021/12/20 17:42:33;;;;;;;22.37;14.90;;;;;;;;;;4957412;28;20472;-67
2021/12/20 17:44:59;;;;;;;21.83;14.65;;;;;;;;;;4963869;28;20392;-66
2021/12/20 17:47:25;;;;;;;18.08;13.25;;;;;;;;;;4959943;28;20487;-66
2021/12/20 17:49:51;;;;;;;19.52;13.75;;;;;;;;;;4970982;28;20497;-67
2021/12/20 17:52:17;;;;;;;19.08;13.50;;;;;;;;;;4969638;28;20427;-51
2021/12/20 17:54:44;;;;;;;18.50;13.35;;;;;;;;;;4970825;28;20868;-61
2021/12/20 17:57:10;;;;;;;20.60;13.85;;;;;;;;;;4950056;28;20518;-63
2021/12/20 17:59:36;;;;;;;17.88;12.90;;;;;;;;;;4964501;28;20377;-63
2021/12/20 18:02:03;;;;;;;19.73;13.73;;;;;;;;;;4964090;28;20482;-62
2021/12/20 18:04:29;;;;;;;17.20;12.93;;;;;;;;;;4962927;28;20400;-62
2021/12/20 18:06:55;;;;;;;19.10;13.20;;;;;;;;;;4965247;28;20917;-61
2021/12/20 18:09:22;;;;;;;38.43;21.10;;;;;;;;;;4968313;28;20419;-60
2021/12/20 18:11:49;;;;;;;16.55;10.88;;;;;;;;;;4968195;28;20458;-69
2021/12/20 18:14:15;;;;;;;16.58;10.65;;;;;;;;;;4966705;28;20379;-74
2021/12/20 18:16:41;;;;;;;14.38;10.02;;;;;;;;;;4970215;28;20397;-69
2021/12/20 18:19:08;;;;;;;13.65;9.43;;;;;;;;;;4966189;28;20389;-74
2021/12/20 18:21:37;;;;;;;13.10;9.40;;;;;;;;;;4950882;28;20471;-63
2021/12/20 18:24:05;;;;;;;13.90;9.10;;;;;;;;;;4972195;28;20868;-65
2021/12/20 18:26:32;;;;;;;13.13;9.00;;;;;;;;;;4974384;28;20396;-63
2021/12/20 18:28:58;;;;;;;14.88;8.95;;;;;;;;;;4974847;28;20423;-64
2021/12/20 18:31:29;;;;;;;13.93;8.60;;;;;;;;;;4960727;28;20419;-68
2021/12/20 18:33:55;;;;;;;11.30;8.40;;;;;;;;;;4966594;28;20423;-69
2021/12/20 18:36:22;;;;;;;15.48;9.25;;;;;;;;;;4970028;28;20387;-67
2021/12/20 18:38:50;;;;;;;11.50;8.55;;;;;;;;;;4949192;28;20398;-66
2021/12/20 18:41:17;;;;;;;11.88;8.38;;;;;;;;;;4951203;28;20413;-65
2021/12/20 18:43:43;;;;;;;11.60;8.05;;;;;;;;;;4966748;28;20439;-67
2021/12/20 18:46:10;;;;;;;11.43;8.23;;;;;;;;;;4948419;28;20862;-66
2021/12/20 18:48:36;;;;;;;9.83;7.40;;;;;;;;;;4950368;28;21577;-64
2021/12/20 18:51:03;;;;;;;11.25;7.75;;;;;;;;;;4966895;28;20917;-62
2021/12/20 18:53:31;;;;;;;11.10;8.13;;;;;;;;;;4965558;28;20388;-64
2021/12/20 18:55:59;;;;;;;10.98;7.70;;;;;;;;;;4957717;28;20736;-64
2021/12/20 18:58:26;;;;;;;11.20;8.30;;;;;;;;;;4959469;28;20790;-61
2021/12/20 19:00:55;;;;;;;13.07;9.30;;;;;;;;;;4974752;28;20475;-61
2021/12/20 19:03:24;;;;;;;12.40;9.63;;;;;;;;;;4975916;28;20384;-60
2021/12/20 19:05:51;;;;;;;12.70;10.05;;;;;;;;;;4974103;28;20431;-60
2021/12/20 19:08:25;;;;;;;13.90;9.85;;;;;;;;;;4969605;28;20915;-60
2021/12/20 19:11:10;;;;;;;12.52;9.52;;;;;;;;;;4968764;28;20432;-60
2021/12/20 19:13:55;;;;;;;13.65;9.95;;;;;;;;;;4970261;28;20390;-60
2021/12/20 19:16:21;;;;;;;14.20;10.30;;;;;;;;;;4961608;28;20389;-60
2021/12/20 19:18:47;;;;;;;14.85;10.85;;;;;;;;;;4969349;28;20386;-60
2021/12/20 19:21:16;;;;;;;13.52;10.38;;;;;;;;;;4974230;28;20388;-60
2021/12/20 19:23:43;;;;;;;14.55;10.98;;;;;;;;;;4961955;28;20919;-60
2021/12/20 19:26:09;;;;;;;14.07;10.63;;;;;;;;;;4974400;28;20404;-61
2021/12/20 19:28:36;;;;;;;14.87;10.30;;;;;;;;;;4965602;28;20383;-60
2021/12/20 19:31:02;;;;;;;15.52;10.90;;;;;;;;;;4966361;28;20413;-60
2021/12/20 19:33:28;;;;;;;14.70;11.50;;;;;;;;;;4966661;28;20427;-60
2021/12/20 19:35:58;;;;;;;13.73;9.50;;;;;;;;;;4974150;28;20380;-60
2021/12/20 19:38:25;;;;;;;13.35;9.88;;;;;;;;;;4974010;28;20884;-60
2021/12/20 19:40:54;;;;;;;14.63;10.38;;;;;;;;;;4949503;28;20424;-60
2021/12/20 19:43:21;;;;;;;14.55;10.23;;;;;;;;;;4973587;28;20392;-60
2021/12/20 19:45:47;;;;;;;15.50;10.85;;;;;;;;;;4974491;28;20388;-60
2021/12/20 19:48:14;;;;;;;16.02;11.20;;;;;;;;;;4974263;28;20476;-60
2021/12/20 19:50:43;;;;;;;16.70;11.63;;;;;;;;;;4950101;28;20408;-60
2021/12/20 19:53:09;;;;;;;15.25;10.80;;;;;;;;;;4965428;28;20384;-60
2021/12/20 19:55:37;;;;;;;16.05;11.48;;;;;;;;;;4964706;28;20378;-60
2021/12/20 19:58:03;;;;;;;16.33;11.03;;;;;;;;;;4965938;28;20753;-60
2021/12/20 20:00:29;;;;;;;15.70;11.38;;;;;;;;;;4964345;28;20393;-60
2021/12/20 20:02:56;;;;;;;14.53;10.70;;;;;;;;;;4949343;28;20491;-60
2021/12/20 20:05:22;;;;;;;15.35;10.80;;;;;;;;;;4964789;28;20388;-60
2021/12/20 20:07:48;;;;;;;14.52;10.60;;;;;;;;;;4952128;28;20856;-60
2021/12/20 20:10:14;;;;;;;14.68;10.65;;;;;;;;;;4964266;28;21003;-60
2021/12/20 20:12:41;;;;;;;16.30;11.45;;;;;;;;;;4973403;28;20383;-60
2021/12/20 20:15:07;;;;;;;15.52;11.07;;;;;;;;;;4973646;28;20380;-60
2021/12/20 20:17:34;;;;;;;14.95;10.95;;;;;;;;;;4972264;28;20880;-60
2021/12/20 20:20:00;;;;;;;14.60;10.50;;;;;;;;;;4964658;28;20383;-60
2021/12/20 20:22:26;;;;;;;15.45;11.02;;;;;;;;;;4945896;28;20765;-60
2021/12/20 20:24:53;;;;;;;13.43;9.93;;;;;;;;;;4966407;28;20391;-60
2021/12/20 20:27:20;;;;;;;15.82;11.18;;;;;;;;;;4961593;28;20495;-60
2021/12/20 20:29:47;;;;;;;14.43;10.32;;;;;;;;;;4964671;28;20420;-60
2021/12/20 20:32:13;;;;;;;14.45;10.65;;;;;;;;;;4967870;28;20381;-60
2021/12/20 20:34:39;;;;;;;15.48;10.70;;;;;;;;;;4962827;28;20464;-60
2021/12/20 20:37:06;;;;;;;13.60;10.27;;;;;;;;;;4970705;28;20380;-60
2021/12/20 20:39:32;;;;;;;14.10;9.90;;;;;;;;;;4963134;28;20396;-60
2021/12/20 20:41:59;;;;;;;13.10;9.65;;;;;;;;;;4963927;28;20407;-60
2021/12/20 20:44:25;;;;;;;12.32;9.00;;;;;;;;;;4964830;28;20753;-61
2021/12/20 20:46:52;;;;;;;13.57;9.93;;;;;;;;;;4964728;28;20404;-60
2021/12/20 20:49:18;;;;;;;12.50;8.80;;;;;;;;;;4962278;28;20409;-67
2021/12/20 20:51:44;;;;;;;12.53;9.13;;;;;;;;;;4968129;28;20385;-66
2021/12/20 20:54:10;;;;;;;11.60;8.65;;;;;;;;;;4971291;28;20410;-67
2021/12/20 20:56:37;;;;;;;12.32;8.75;;;;;;;;;;4963690;28;20944;-66
2021/12/20 20:59:05;;;;;;;12.43;8.45;;;;;;;;;;4972496;28;20379;-65
2021/12/20 21:01:31;;;;;;;12.50;7.50;;;;;;;;;;4966163;28;20425;-66
2021/12/20 21:04:00;;;;;;;11.15;7.80;;;;;;;;;;4973107;28;20465;-65
2021/12/20 21:06:26;;;;;;;11.60;7.55;;;;;;;;;;4961741;28;20419;-66
2021/12/20 21:08:53;;;;;;;11.50;7.65;;;;;;;;;;4967618;28;20474;-62
2021/12/20 21:11:19;;;;;;;11.38;7.20;;;;;;;;;;4962494;28;20396;-76
2021/12/20 21:13:45;;;;;;;10.43;7.38;;;;;;;;;;4964767;28;20374;-66
2021/12/20 21:16:11;;;;;;;10.95;7.00;;;;;;;;;;4952383;28;20742;-73
2021/12/20 21:18:38;;;;;;;11.23;7.00;;;;;;;;;;4971651;28;20369;-69
2021/12/20 21:21:06;;;;;;;11.27;6.35;;;;;;;;;;4973675;28;20388;-67
2021/12/20 21:23:33;;;;;;;10.43;6.57;;;;;;;;;;4972802;28;20377;-64
2021/12/20 21:25:59;;;;;;;11.00;6.28;;;;;;;;;;4972804;28;20471;-70
2021/12/20 21:28:25;;;;;;;10.43;6.45;;;;;;;;;;4972165;28;20899;-67
2021/12/20 21:30:52;;;;;;;9.27;5.40;;;;;;;;;;4970437;28;20765;-69
2021/12/20 21:33:18;;;;;;;9.10;5.60;;;;;;;;;;4971845;28;20419;-71
2021/12/20 21:35:45;;;;;;;9.43;5.60;;;;;;;;;;4971598;28;20472;-67
